Time;durP1;ratioP1;P1;durP2;ratioP2;P2;SDS_P1;SDS_P2;PMS_P1;PMS_P2;Temp;Humidity;BMP_temperature;BMP_pressure;BME280_temperature;BME280_humidity;BME280_pressure;Samples;Min_cycle;Max_cycle;Signal;HPM_P1;HPM_P2
2022/02/19 00:00:57;;;;;;;19.03;16.20;;;5.40;99.90;;;;;;5036222;28;20877;-69
2022/02/19 00:03:26;;;;;;;17.97;16.40;;;5.40;99.90;;;;;;5034620;28;20470;-69
2022/02/19 00:05:53;;;;;;;16.07;14.73;;;5.50;99.90;;;;;;5031816;28;20539;-70
2022/02/19 00:08:20;;;;;;;18.20;16.30;;;5.50;99.90;;;;;;5033394;28;20475;-70
2022/02/19 00:10:48;;;;;;;16.93;15.40;;;5.50;99.90;;;;;;5028741;28;20470;-70
2022/02/19 00:13:16;;;;;;;17.20;15.37;;;5.50;99.90;;;;;;5035258;28;20468;-70
2022/02/19 00:15:43;;;;;;;16.47;14.93;;;5.60;99.90;;;;;;5035904;28;20466;-70
2022/02/19 00:18:11;;;;;;;22.00;16.23;;;5.60;99.90;;;;;;5037510;28;20587;-70
2022/02/19 00:20:39;;;;;;;16.40;14.90;;;5.60;99.90;;;;;;5025547;28;20480;-69
2022/02/19 00:23:06;;;;;;;21.57;17.13;;;5.60;99.90;;;;;;5035412;28;20459;-71
2022/02/19 00:25:34;;;;;;;18.97;15.80;;;5.50;99.90;;;;;;5036096;28;20550;-70
2022/02/19 00:28:01;;;;;;;22.93;15.70;;;5.50;99.90;;;;;;5036485;28;20474;-70
2022/02/19 00:30:28;;;;;;;15.57;14.27;;;5.60;99.90;;;;;;5038845;28;20456;-71
2022/02/19 00:32:55;;;;;;;16.10;15.10;;;5.50;99.90;;;;;;5029079;28;20970;-70
2022/02/19 00:35:22;;;;;;;17.37;15.80;;;5.50;99.90;;;;;;5033486;28;20467;-71
2022/02/19 00:37:51;;;;;;;23.83;15.80;;;5.60;99.90;;;;;;5034421;28;20597;-71
2022/02/19 00:40:18;;;;;;;23.93;15.77;;;5.60;99.90;;;;;;5037511;28;20469;-70
2022/02/19 00:42:45;;;;;;;19.63;15.97;;;5.60;99.90;;;;;;5029199;28;20997;-72
2022/02/19 00:45:11;;;;;;;17.33;15.53;;;5.60;99.90;;;;;;5036511;28;20463;-70
2022/02/19 00:47:39;;;;;;;17.70;16.00;;;5.60;99.90;;;;;;5039644;28;20663;-69
2022/02/19 00:50:08;;;;;;;17.13;15.70;;;5.60;99.90;;;;;;5032641;28;20471;-68
2022/02/19 00:52:35;;;;;;;17.47;15.73;;;5.60;99.90;;;;;;5032239;28;20496;-71
2022/02/19 00:55:03;;;;;;;17.63;15.80;;;5.60;99.90;;;;;;5036651;28;20464;-70
2022/02/19 00:57:30;;;;;;;19.27;16.07;;;5.70;99.90;;;;;;5037102;28;20487;-71
2022/02/19 00:59:58;;;;;;;17.07;15.40;;;5.70;99.90;;;;;;5031101;28;20948;-69
2022/02/19 01:02:24;;;;;;;17.30;16.00;;;5.70;99.90;;;;;;5040547;28;20946;-69
2022/02/19 01:04:51;;;;;;;19.80;15.03;;;5.80;99.90;;;;;;5033638;28;20458;-69
2022/02/19 01:07:18;;;;;;;17.43;15.97;;;5.70;99.90;;;;;;5031633;28;20473;-70
2022/02/19 01:09:45;;;;;;;16.50;15.10;;;5.80;99.90;;;;;;5037511;28;20857;-69
2022/02/19 01:12:13;;;;;;;17.73;16.00;;;5.80;99.90;;;;;;5032625;28;20468;-70
2022/02/19 01:14:40;;;;;;;17.20;15.70;;;5.70;99.90;;;;;;5040070;28;20814;-70
2022/02/19 01:17:07;;;;;;;17.90;16.30;;;5.70;99.90;;;;;;5036623;28;20475;-70
2022/02/19 01:19:34;;;;;;;17.90;16.10;;;5.70;99.90;;;;;;5037083;28;20500;-70
2022/02/19 01:22:01;;;;;;;19.23;16.53;;;5.70;99.90;;;;;;5040938;28;20461;-70
2022/02/19 01:24:28;;;;;;;19.40;16.00;;;5.70;99.90;;;;;;5041214;28;20761;-70
2022/02/19 01:26:54;;;;;;;22.13;15.40;;;5.80;99.90;;;;;;5044585;28;20867;-70
2022/02/19 01:29:23;;;;;;;18.53;16.53;;;5.80;99.90;;;;;;5042079;28;20478;-70
2022/02/19 01:31:50;;;;;;;18.67;16.87;;;5.80;99.90;;;;;;5035307;28;21002;-70
2022/02/19 01:34:17;;;;;;;17.00;15.60;;;5.80;99.90;;;;;;5037808;28;20537;-70
2022/02/19 01:36:44;;;;;;;16.93;15.63;;;5.80;99.90;;;;;;5039861;28;20991;-70
2022/02/19 01:39:11;;;;;;;17.23;15.77;;;5.80;99.90;;;;;;5041841;28;20497;-70
2022/02/19 01:41:38;;;;;;;16.87;14.97;;;5.90;99.90;;;;;;5039073;28;20460;-70
2022/02/19 01:44:06;;;;;;;16.63;15.33;;;5.90;99.90;;;;;;5036991;28;20479;-70
2022/02/19 01:46:35;;;;;;;16.30;15.30;;;5.80;99.90;;;;;;5035942;28;20472;-70
2022/02/19 01:49:02;;;;;;;17.70;16.03;;;5.70;99.90;;;;;;5034074;28;20461;-70
2022/02/19 01:51:31;;;;;;;17.23;15.67;;;5.70;99.90;;;;;;5045750;28;20478;-70
2022/02/19 01:54:02;;;;;;;16.43;14.80;;;5.60;99.90;;;;;;5034402;28;20462;-70
2022/02/19 01:56:29;;;;;;;15.93;15.03;;;5.60;99.90;;;;;;5038662;28;20472;-70
2022/02/19 01:58:57;;;;;;;16.43;15.63;;;5.50;99.90;;;;;;5032414;28;20496;-70
2022/02/19 02:01:23;;;;;;;19.30;16.33;;;5.50;99.90;;;;;;5029984;28;21340;-69
2022/02/19 02:03:53;;;;;;;16.50;15.37;;;5.40;99.90;;;;;;5038340;28;20475;-70
2022/02/19 02:06:23;;;;;;;16.30;15.23;;;5.40;99.90;;;;;;5038616;28;20888;-70
2022/02/19 02:08:50;;;;;;;16.10;15.07;;;5.40;99.90;;;;;;5039298;28;20476;-69
2022/02/19 02:11:17;;;;;;;16.63;15.30;;;5.40;99.90;;;;;;5033896;28;20468;-69
2022/02/19 02:13:45;;;;;;;16.30;15.20;;;5.30;99.90;;;;;;5035141;28;20465;-69
2022/02/19 02:16:11;;;;;;;15.70;14.70;;;5.40;99.90;;;;;;5034944;28;20974;-69
2022/02/19 02:18:38;;;;;;;15.97;14.80;;;5.40;99.90;;;;;;5031348;28;20492;-69
2022/02/19 02:21:06;;;;;;;16.70;15.70;;;5.50;99.90;;;;;;5040095;28;20817;-69
2022/02/19 02:23:35;;;;;;;15.77;14.40;;;5.50;99.90;;;;;;5038474;28;21208;-70
2022/02/19 02:26:03;;;;;;;16.70;15.10;;;5.60;99.90;;;;;;5040750;28;20460;-69
2022/02/19 02:28:30;;;;;;;16.17;14.93;;;5.50;99.90;;;;;;5036891;28;20487;-69
2022/02/19 02:30:57;;;;;;;16.67;15.23;;;5.50;99.90;;;;;;5038461;28;20474;-70
2022/02/19 02:33:24;;;;;;;16.67;15.30;;;5.60;99.90;;;;;;5036914;28;21023;-70
2022/02/19 02:35:52;;;;;;;16.83;15.63;;;5.60;99.90;;;;;;5043071;28;20464;-70
2022/02/19 02:38:19;;;;;;;18.97;17.30;;;5.60;99.90;;;;;;5040260;28;20486;-70
2022/02/19 02:40:48;;;;;;;17.20;15.97;;;5.70;99.90;;;;;;5031733;28;21040;-69
2022/02/19 02:43:15;;;;;;;16.40;15.30;;;5.70;99.90;;;;;;5031590;28;20543;-69
2022/02/19 02:45:43;;;;;;;16.60;15.50;;;5.60;99.90;;;;;;5040477;28;20478;-69
2022/02/19 02:48:10;;;;;;;15.80;14.70;;;5.60;99.90;;;;;;5034941;28;20468;-69
2022/02/19 02:50:36;;;;;;;16.10;14.63;;;5.60;99.90;;;;;;5037240;28;20467;-69
2022/02/19 02:53:03;;;;;;;16.53;15.37;;;5.60;99.90;;;;;;5032479;28;20468;-69
2022/02/19 02:55:30;;;;;;;16.20;15.20;;;5.60;99.90;;;;;;5038578;28;20468;-69
2022/02/19 02:57:58;;;;;;;16.23;15.13;;;5.60;99.90;;;;;;5031384;28;20959;-70
2022/02/19 03:00:25;;;;;;;16.57;14.97;;;5.60;99.90;;;;;;5036965;28;20467;-70
2022/02/19 03:02:52;;;;;;;15.90;15.00;;;5.50;99.90;;;;;;5037298;28;20461;-70
2022/02/19 03:05:19;;;;;;;15.50;14.60;;;5.50;99.90;;;;;;5034899;28;20482;-70
2022/02/19 03:07:46;;;;;;;15.43;14.53;;;5.60;99.90;;;;;;5033687;28;20469;-70
2022/02/19 03:10:16;;;;;;;17.90;15.77;;;5.60;99.90;;;;;;5037766;28;20500;-70
2022/02/19 03:12:44;;;;;;;15.33;14.60;;;5.50;99.90;;;;;;5033039;28;20472;-69
2022/02/19 03:15:18;;;;;;;15.90;14.77;;;5.50;99.90;;;;;;5036975;28;20494;-70
2022/02/19 03:17:45;;;;;;;17.13;15.53;;;5.40;99.90;;;;;;5029038;28;20488;-70
2022/02/19 03:20:15;;;;;;;16.90;15.00;;;5.40;99.90;;;;;;5035200;28;21045;-70
2022/02/19 03:22:42;;;;;;;16.67;15.60;;;5.40;99.90;;;;;;5035746;28;20488;-70
2022/02/19 03:25:09;;;;;;;15.60;14.50;;;5.30;99.90;;;;;;5035618;28;20501;-70
2022/02/19 03:27:36;;;;;;;16.50;14.60;;;5.30;99.90;;;;;;5036501;28;20463;-70
2022/02/19 03:30:03;;;;;;;15.30;14.40;;;5.20;99.90;;;;;;5026909;28;20841;-70
2022/02/19 03:32:32;;;;;;;15.50;14.70;;;5.30;99.90;;;;;;5035087;28;20464;-70
2022/02/19 03:34:59;;;;;;;15.77;14.57;;;5.30;99.90;;;;;;5033273;28;20554;-70
2022/02/19 03:37:26;;;;;;;15.80;14.70;;;5.30;99.90;;;;;;5036910;28;21077;-70
2022/02/19 03:39:54;;;;;;;15.90;14.70;;;5.30;99.90;;;;;;5033139;28;20496;-71
2022/02/19 03:42:20;;;;;;;15.63;14.43;;;5.30;99.90;;;;;;5035350;28;20464;-70
2022/02/19 03:44:47;;;;;;;15.80;14.80;;;5.20;99.90;;;;;;5041155;28;20930;-70
2022/02/19 03:47:14;;;;;;;15.37;14.57;;;5.20;99.90;;;;;;5036776;28;20518;-70
2022/02/19 03:49:42;;;;;;;15.70;14.70;;;5.20;99.90;;;;;;5036139;28;20553;-70
2022/02/19 03:52:09;;;;;;;15.50;14.33;;;5.20;99.90;;;;;;5034856;28;20468;-70
2022/02/19 03:54:36;;;;;;;15.93;14.77;;;5.20;99.90;;;;;;5036407;28;20464;-70
2022/02/19 03:57:03;;;;;;;19.53;15.47;;;5.20;99.90;;;;;;5038042;28;20461;-70
2022/02/19 03:59:30;;;;;;;16.43;14.87;;;5.10;99.90;;;;;;5036671;28;20475;-70
2022/02/19 04:01:57;;;;;;;15.70;14.40;;;5.10;99.90;;;;;;5040296;28;20456;-70
2022/02/19 04:04:24;;;;;;;17.63;14.83;;;5.20;99.90;;;;;;5037945;28;20464;-70
2022/02/19 04:06:52;;;;;;;16.43;15.23;;;5.10;99.90;;;;;;5034116;28;20464;-70
2022/02/19 04:09:19;;;;;;;16.13;14.90;;;5.10;99.90;;;;;;5032021;28;20507;-69
2022/02/19 04:11:46;;;;;;;16.13;14.70;;;5.10;99.90;;;;;;5034800;28;20479;-70
2022/02/19 04:14:13;;;;;;;15.93;14.40;;;5.10;99.90;;;;;;5036926;28;20482;-70
2022/02/19 04:16:40;;;;;;;16.23;14.50;;;5.20;99.90;;;;;;5029603;28;20477;-70
2022/02/19 04:19:07;;;;;;;15.70;14.40;;;5.20;99.90;;;;;;5036314;28;20495;-70
2022/02/19 04:21:34;;;;;;;15.07;13.90;;;5.20;99.90;;;;;;5035031;28;20494;-70
2022/02/19 04:24:02;;;;;;;15.97;14.73;;;5.20;99.90;;;;;;5037710;28;20472;-70
2022/02/19 04:26:29;;;;;;;16.37;14.77;;;5.20;99.90;;;;;;5037991;28;20469;-71
2022/02/19 04:28:56;;;;;;;16.60;15.20;;;5.20;99.90;;;;;;5032675;28;21233;-70
2022/02/19 04:31:23;;;;;;;15.87;14.77;;;5.20;99.90;;;;;;5038378;28;20520;-70
2022/02/19 04:33:50;;;;;;;16.30;14.93;;;5.20;99.90;;;;;;5037468;28;20467;-70
2022/02/19 04:36:17;;;;;;;15.93;14.50;;;5.20;99.90;;;;;;5033484;28;20464;-70
2022/02/19 04:38:44;;;;;;;15.97;14.80;;;5.10;99.90;;;;;;5034392;28;20487;-70
2022/02/19 04:41:12;;;;;;;15.37;14.23;;;5.00;99.90;;;;;;5031721;28;20471;-70
2022/02/19 04:43:39;;;;;;;15.80;14.30;;;5.00;99.90;;;;;;5039988;28;20456;-70
2022/02/19 04:46:06;;;;;;;15.53;14.33;;;5.00;99.90;;;;;;5037466;28;20468;-70
2022/02/19 04:48:32;;;;;;;15.27;14.17;;;5.10;99.90;;;;;;5035254;28;20468;-70
2022/02/19 04:50:59;;;;;;;15.90;14.40;;;5.00;99.90;;;;;;5035537;28;20461;-70
2022/02/19 04:53:26;;;;;;;17.67;15.47;;;5.00;99.90;;;;;;5031118;28;20492;-70
2022/02/19 04:55:53;;;;;;;16.10;14.83;;;5.00;99.90;;;;;;5036177;28;20555;-70
2022/02/19 04:58:21;;;;;;;16.10;14.50;;;5.00;99.90;;;;;;5034311;28;20470;-70
2022/02/19 05:00:48;;;;;;;15.53;14.53;;;4.90;99.90;;;;;;5011361;28;20495;-70
2022/02/19 05:03:15;;;;;;;17.10;15.43;;;4.80;99.90;;;;;;5003059;28;20483;-70
2022/02/19 05:05:42;;;;;;;15.90;14.90;;;4.80;99.90;;;;;;5005404;28;20465;-70
2022/02/19 05:08:09;;;;;;;16.53;15.17;;;4.70;99.90;;;;;;5005766;28;20464;-70
2022/02/19 05:10:36;;;;;;;15.67;14.57;;;4.70;99.90;;;;;;5004944;28;20534;-70
2022/02/19 05:13:03;;;;;;;16.10;14.97;;;4.70;99.90;;;;;;5004514;28;20452;-69
2022/02/19 05:15:31;;;;;;;17.93;16.00;;;4.60;99.90;;;;;;5005428;28;20469;-70
2022/02/19 05:17:58;;;;;;;17.00;15.30;;;4.60;99.90;;;;;;5005976;28;21971;-70
2022/02/19 05:20:26;;;;;;;15.57;14.57;;;4.60;99.90;;;;;;5006301;28;20488;-70
2022/02/19 05:22:53;;;;;;;15.77;14.77;;;4.60;99.90;;;;;;5005585;28;20467;-70
2022/02/19 05:25:20;;;;;;;21.30;15.60;;;4.50;99.90;;;;;;5005425;28;20469;-70
2022/02/19 05:27:47;;;;;;;19.77;16.63;;;4.50;99.90;;;;;;5004077;28;21309;-70
2022/02/19 05:30:14;;;;;;;17.23;15.93;;;4.50;99.90;;;;;;5003449;28;20464;-71
2022/02/19 05:32:42;;;;;;;17.00;15.50;;;4.50;99.90;;;;;;5004556;28;20461;-70
2022/02/19 05:35:09;;;;;;;16.20;15.10;;;4.40;99.90;;;;;;5005524;28;20471;-70
2022/02/19 05:37:36;;;;;;;16.00;14.50;;;4.40;99.90;;;;;;5005903;28;20472;-69
2022/02/19 05:40:05;;;;;;;15.70;14.70;;;4.30;99.90;;;;;;5004692;28;20500;-70
2022/02/19 05:42:32;;;;;;;17.07;14.70;;;4.30;99.90;;;;;;5004718;28;20468;-70
2022/02/19 05:44:59;;;;;;;15.87;14.80;;;4.30;99.90;;;;;;5005166;28;20791;-71
2022/02/19 05:47:26;;;;;;;17.07;15.77;;;4.30;99.90;;;;;;5005412;28;20460;-70
2022/02/19 05:49:54;;;;;;;17.13;15.60;;;4.20;99.90;;;;;;5003768;28;21287;-70
2022/02/19 05:52:22;;;;;;;16.90;15.70;;;4.30;99.90;;;;;;5005054;28;20721;-69
2022/02/19 05:54:49;;;;;;;16.47;15.23;;;4.30;99.90;;;;;;5005920;28;20470;-70
2022/02/19 05:57:16;;;;;;;16.07;14.83;;;4.30;99.90;;;;;;5004844;28;20534;-70
2022/02/19 05:59:42;;;;;;;16.07;15.00;;;4.30;99.90;;;;;;5008366;28;20499;-69
2022/02/19 06:02:09;;;;;;;17.20;16.00;;;4.30;99.90;;;;;;5008662;28;20447;-70
2022/02/19 06:04:36;;;;;;;18.37;16.20;;;4.30;99.90;;;;;;5009082;28;20468;-70
2022/02/19 06:07:05;;;;;;;18.93;16.17;;;4.30;99.90;;;;;;5008424;28;20585;-69
2022/02/19 06:09:32;;;;;;;16.63;15.40;;;4.30;99.90;;;;;;5008758;28;20468;-70
2022/02/19 06:11:58;;;;;;;16.87;15.60;;;4.20;99.90;;;;;;5006831;28;20476;-70
2022/02/19 06:14:26;;;;;;;16.27;14.97;;;4.20;99.90;;;;;;5007387;28;23049;-69
2022/02/19 06:16:53;;;;;;;18.23;16.30;;;4.20;99.90;;;;;;5007779;28;20492;-70
2022/02/19 06:19:20;;;;;;;19.80;15.70;;;4.10;99.90;;;;;;5007490;28;20816;-71
2022/02/19 06:21:47;;;;;;;17.90;15.93;;;4.10;99.90;;;;;;5007780;28;21111;-70
2022/02/19 06:24:15;;;;;;;17.40;15.50;;;4.10;99.90;;;;;;5009311;28;20480;-70
2022/02/19 06:26:42;;;;;;;16.97;15.37;;;4.10;99.90;;;;;;5007838;28;20460;-70
2022/02/19 06:29:09;;;;;;;17.87;16.03;;;4.10;99.90;;;;;;5007074;28;20624;-70
2022/02/19 06:31:36;;;;;;;17.17;15.60;;;4.10;99.90;;;;;;5008178;28;20467;-70
2022/02/19 06:34:03;;;;;;;17.70;16.20;;;4.20;99.90;;;;;;5007982;28;20484;-70
2022/02/19 06:36:29;;;;;;;16.43;15.40;;;4.10;99.90;;;;;;5008007;28;20497;-69
2022/02/19 06:38:56;;;;;;;16.53;15.37;;;4.10;99.90;;;;;;5008859;28;20460;-70
2022/02/19 06:41:24;;;;;;;16.80;15.50;;;4.00;99.90;;;;;;5007610;28;20470;-69
2022/02/19 06:43:52;;;;;;;17.20;15.83;;;4.10;99.90;;;;;;5008768;28;20461;-69
2022/02/19 06:46:18;;;;;;;16.67;15.60;;;4.10;99.90;;;;;;5006682;28;20556;-70
2022/02/19 06:48:45;;;;;;;18.67;16.80;;;4.00;99.90;;;;;;5008135;28;20464;-70
2022/02/19 06:51:12;;;;;;;17.37;15.93;;;4.00;99.90;;;;;;5005098;28;21171;-70
2022/02/19 06:53:41;;;;;;;16.90;15.60;;;4.00;99.90;;;;;;5005142;28;20954;-70
2022/02/19 06:56:07;;;;;;;57.93;17.17;;;4.10;99.90;;;;;;5006000;28;20464;-70
2022/02/19 06:58:36;;;;;;;17.20;16.03;;;4.20;99.90;;;;;;5006095;28;20467;-70
2022/02/19 07:01:03;;;;;;;29.37;16.90;;;4.20;99.90;;;;;;5005407;28;20480;-69
2022/02/19 07:03:30;;;;;;;16.57;15.37;;;4.30;99.90;;;;;;5005541;28;20471;-70
2022/02/19 07:05:56;;;;;;;17.13;15.73;;;4.20;99.90;;;;;;5005017;28;20460;-70
2022/02/19 07:08:23;;;;;;;17.13;15.80;;;4.20;99.90;;;;;;5004936;28;20495;-69
2022/02/19 07:10:50;;;;;;;17.37;15.63;;;4.20;99.90;;;;;;5005474;28;20834;-70
2022/02/19 07:13:17;;;;;;;23.07;17.40;;;4.20;99.90;;;;;;5005177;28;20465;-70
2022/02/19 07:15:46;;;;;;;17.63;15.83;;;4.10;99.90;;;;;;5006372;28;21514;-69
2022/02/19 07:18:12;;;;;;;16.13;15.13;;;4.10;99.90;;;;;;5004652;28;20500;-69
2022/02/19 07:20:39;;;;;;;17.67;16.30;;;4.10;99.90;;;;;;5005024;28;20506;-70
2022/02/19 07:23:07;;;;;;;18.23;16.63;;;4.10;99.90;;;;;;5036353;28;20514;-69
2022/02/19 07:25:35;;;;;;;22.47;16.07;;;4.10;99.90;;;;;;5021076;28;20452;-69
2022/02/19 07:28:02;;;;;;;17.07;15.60;;;4.10;99.90;;;;;;5004443;28;20453;-70
2022/02/19 07:30:29;;;;;;;15.83;14.60;;;4.10;99.90;;;;;;5008296;28;22129;-69
2022/02/19 07:32:57;;;;;;;15.57;14.67;;;4.20;99.90;;;;;;5007163;28;20945;-69
2022/02/19 07:35:24;;;;;;;15.73;14.43;;;4.20;99.90;;;;;;5007658;28;20469;-70
2022/02/19 07:37:51;;;;;;;17.37;15.70;;;4.30;99.90;;;;;;5008530;28;20869;-72
2022/02/19 07:40:18;;;;;;;20.60;17.00;;;4.30;99.90;;;;;;5007827;28;20476;-70
2022/02/19 07:42:46;;;;;;;16.47;15.00;;;4.30;99.90;;;;;;5024745;28;20479;-69
2022/02/19 07:45:13;;;;;;;17.50;15.90;;;4.30;99.90;;;;;;5015220;28;21084;-69
2022/02/19 07:47:39;;;;;;;16.30;15.20;;;4.40;99.90;;;;;;5007425;28;20469;-70
2022/02/19 07:58:25;;;;;;;16.90;14.97;;;4.60;99.90;;;;;;5006826;28;20623;-70
2022/02/19 08:00:53;;;;;;;20.57;16.67;;;4.60;99.90;;;;;;5005856;28;21038;-70
2022/02/19 08:03:22;;;;;;;16.03;14.50;;;4.70;99.90;;;;;;5007949;28;20477;-70
2022/02/19 08:05:53;;;;;;;15.80;14.53;;;4.70;99.90;;;;;;5007351;28;21008;-70
2022/02/19 08:08:20;;;;;;;15.93;14.70;;;4.80;99.90;;;;;;5007430;28;20488;-69
2022/02/19 08:10:47;;;;;;;16.00;14.67;;;4.80;99.90;;;;;;5008049;28;20474;-70
2022/02/19 08:13:16;;;;;;;16.17;14.97;;;4.90;99.90;;;;;;5006396;28;20870;-70
2022/02/19 08:15:45;;;;;;;16.40;15.20;;;4.90;99.90;;;;;;5006773;28;20994;-70
2022/02/19 08:18:13;;;;;;;29.33;16.90;;;5.00;99.90;;;;;;5007875;28;20491;-69
2022/02/19 08:20:43;;;;;;;16.87;15.30;;;5.00;99.90;;;;;;5005134;28;20492;-70
2022/02/19 08:23:15;;;;;;;18.23;16.03;;;5.00;99.90;;;;;;5006597;28;20475;-69
2022/02/19 08:25:43;;;;;;;16.40;14.87;;;5.10;99.90;;;;;;5007869;28;20452;-70
2022/02/19 08:28:11;;;;;;;15.87;14.77;;;5.10;99.90;;;;;;5006424;28;20470;-70
2022/02/19 08:30:42;;;;;;;16.70;15.30;;;5.20;99.90;;;;;;5007407;28;20554;-69
2022/02/19 08:33:10;;;;;;;16.97;15.37;;;5.20;99.90;;;;;;5006950;28;21226;-70
2022/02/19 08:35:38;;;;;;;16.33;14.77;;;5.30;99.90;;;;;;5006811;28;20470;-69
2022/02/19 08:38:07;;;;;;;17.73;16.00;;;5.30;99.90;;;;;;5007888;28;20460;-69
2022/02/19 08:40:35;;;;;;;20.03;15.10;;;5.30;99.90;;;;;;5006208;28;20542;-70
2022/02/19 08:43:02;;;;;;;17.20;15.80;;;5.40;99.90;;;;;;5007813;28;20465;-70
2022/02/19 08:45:29;;;;;;;16.97;15.33;;;5.40;99.90;;;;;;5007982;28;20469;-69
2022/02/19 08:48:01;;;;;;;19.67;16.60;;;5.50;99.90;;;;;;5007033;28;20461;-70
2022/02/19 08:50:29;;;;;;;17.80;16.23;;;5.50;99.90;;;;;;5007452;28;21032;-70
2022/02/19 08:52:56;;;;;;;16.83;15.57;;;5.60;99.90;;;;;;5007100;28;21529;-69
2022/02/19 08:55:23;;;;;;;16.83;15.30;;;5.60;99.90;;;;;;5007538;28;20467;-70
2022/02/19 08:57:51;;;;;;;17.20;15.27;;;5.60;99.90;;;;;;5007833;28;20479;-70
2022/02/19 09:00:19;;;;;;;16.53;15.10;;;5.70;99.90;;;;;;5006107;28;20497;-70
2022/02/19 09:02:45;;;;;;;17.10;15.40;;;5.70;99.90;;;;;;5011543;28;20939;-69
2022/02/19 09:05:14;;;;;;;17.03;15.57;;;5.70;99.90;;;;;;5007064;28;20929;-70
2022/02/19 09:07:42;;;;;;;18.80;15.80;;;5.80;99.90;;;;;;5007664;28;20464;-70
2022/02/19 09:10:10;;;;;;;15.87;14.67;;;6.00;99.90;;;;;;5007270;28;20473;-71
2022/02/19 09:12:40;;;;;;;21.00;17.43;;;6.00;99.90;;;;;;5006580;28;20475;-70
2022/02/19 09:15:09;;;;;;;17.80;16.00;;;6.10;99.90;;;;;;5007115;28;20468;-71
2022/02/19 09:17:36;;;;;;;15.63;14.50;;;6.10;99.90;;;;;;5006895;28;20503;-70
2022/02/19 09:20:03;;;;;;;17.00;15.60;;;6.20;99.90;;;;;;5006494;28;20462;-70
2022/02/19 09:22:30;;;;;;;23.33;16.10;;;6.30;99.90;;;;;;5005025;28;20465;-70
2022/02/19 09:24:57;;;;;;;17.13;15.50;;;6.30;99.90;;;;;;5006935;28;20474;-70
2022/02/19 09:27:24;;;;;;;16.57;15.20;;;6.30;99.90;;;;;;5004955;28;20465;-70
2022/02/19 09:29:51;;;;;;;16.60;15.17;;;6.10;99.90;;;;;;5005579;28;20480;-70
2022/02/19 09:32:19;;;;;;;17.10;15.37;;;6.30;99.90;;;;;;5006477;28;20490;-71
2022/02/19 09:34:46;;;;;;;16.60;15.40;;;6.40;99.90;;;;;;5008653;28;20460;-71
2022/02/19 09:37:13;;;;;;;21.87;15.47;;;6.60;99.90;;;;;;5010363;28;20997;-69
2022/02/19 09:39:40;;;;;;;15.67;14.37;;;6.60;99.90;;;;;;5009816;28;20476;-70
2022/02/19 09:42:08;;;;;;;16.67;15.33;;;6.70;99.90;;;;;;5010577;28;20493;-72
2022/02/19 09:44:35;;;;;;;16.60;14.93;;;6.60;99.90;;;;;;5010492;28;20568;-72
2022/02/19 09:47:02;;;;;;;16.80;15.30;;;6.70;99.90;;;;;;5011018;28;20469;-69
2022/02/19 09:49:30;;;;;;;17.40;15.70;;;7.00;99.90;;;;;;5009828;28;21011;-71
2022/02/19 09:51:59;;;;;;;17.53;15.83;;;7.00;99.90;;;;;;5009664;28;20471;-70
2022/02/19 09:54:26;;;;;;;17.43;15.73;;;6.90;99.90;;;;;;5010331;28;20824;-70
2022/02/19 09:56:53;;;;;;;15.77;14.87;;;6.70;99.90;;;;;;5010641;28;20478;-70
2022/02/19 09:59:20;;;;;;;18.40;16.03;;;6.70;99.90;;;;;;5010912;28;20473;-71
2022/02/19 10:02:00;;;;;;;17.17;15.60;;;6.50;99.90;;;;;;5014433;28;20490;-69
2022/02/19 10:04:27;;;;;;;16.60;15.30;;;6.30;99.90;;;;;;5009873;28;20566;-72
2022/02/19 10:06:58;;;;;;;17.37;16.07;;;6.40;99.90;;;;;;5013600;28;20543;-69
2022/02/19 10:09:27;;;;;;;16.43;15.30;;;6.50;99.90;;;;;;5009965;28;20448;-72
2022/02/19 10:12:07;;;;;;;17.13;15.80;;;6.40;99.90;;;;;;5009161;28;20574;-71
2022/02/19 10:14:36;;;;;;;16.87;15.00;;;6.40;99.90;;;;;;5010072;28;20477;-71
2022/02/19 10:17:16;;;;;;;17.60;16.20;;;6.40;99.90;;;;;;5009985;28;20811;-71
2022/02/19 10:20:01;;;;;;;17.43;15.63;;;6.50;99.90;;;;;;5008520;28;21315;-71
2022/02/19 10:22:31;;;;;;;16.70;15.70;;;6.70;99.90;;;;;;5006558;28;20488;-71
2022/02/19 10:24:59;;;;;;;17.30;15.80;;;6.80;99.90;;;;;;5009377;28;20456;-70
2022/02/19 10:27:40;;;;;;;17.80;15.70;;;6.90;99.90;;;;;;5009233;28;21416;-71
2022/02/19 10:30:09;;;;;;;16.00;14.90;;;7.00;99.90;;;;;;5009660;28;20975;-70
2022/02/19 10:32:52;;;;;;;16.73;14.90;;;7.20;99.90;;;;;;5009503;28;20588;-70
2022/02/19 10:35:20;;;;;;;16.67;15.27;;;7.20;99.90;;;;;;5008730;28;20449;-69
2022/02/19 10:37:51;;;;;;;16.33;14.97;;;7.70;99.90;;;;;;5024608;28;20470;-70
2022/02/19 10:40:30;;;;;;;15.80;14.87;;;8.10;99.90;;;;;;5033586;28;20463;-71
2022/02/19 10:42:58;;;;;;;17.60;16.10;;;8.30;99.90;;;;;;5031444;28;20479;-70
2022/02/19 10:45:26;;;;;;;17.50;16.10;;;8.50;99.90;;;;;;5008739;28;20563;-70
2022/02/19 10:47:54;;;;;;;18.23;15.10;;;8.10;99.90;;;;;;5010390;28;20479;-70
2022/02/19 10:50:21;;;;;;;17.37;16.03;;;8.20;99.90;;;;;;5010442;28;20456;-71
2022/02/19 10:52:55;;;;;;;17.93;15.90;;;7.90;99.90;;;;;;5008319;28;20483;-70
2022/02/19 10:55:28;;;;;;;17.27;15.80;;;7.80;99.90;;;;;;5009151;28;20452;-71
2022/02/19 10:57:59;;;;;;;16.57;15.30;;;7.40;99.90;;;;;;5008653;28;20469;-70
2022/02/19 11:00:27;;;;;;;17.40;16.10;;;7.70;99.90;;;;;;5008709;28;20507;-72
2022/02/19 11:02:55;;;;;;;17.67;16.03;;;7.60;99.90;;;;;;5007670;28;20990;-69
2022/02/19 11:05:22;;;;;;;17.43;16.00;;;7.50;99.90;;;;;;5009195;28;20475;-72
2022/02/19 11:07:50;;;;;;;16.40;15.20;;;7.60;99.90;;;;;;5009150;28;20468;-70
2022/02/19 11:10:21;;;;;;;17.50;15.80;;;7.80;99.90;;;;;;5008689;28;21172;-70
2022/02/19 11:12:49;;;;;;;16.03;14.93;;;7.70;99.90;;;;;;5008801;28;20902;-71
2022/02/19 11:15:19;;;;;;;17.67;16.20;;;7.50;99.90;;;;;;5008947;28;20452;-70
2022/02/19 11:17:48;;;;;;;16.13;14.83;;;7.30;99.90;;;;;;5007705;28;20522;-69
2022/02/19 11:20:15;;;;;;;15.87;14.67;;;7.50;99.90;;;;;;5007277;28;20460;-70
2022/02/19 11:22:43;;;;;;;15.77;14.47;;;8.20;99.90;;;;;;5007621;28;20498;-70
2022/02/19 11:25:11;;;;;;;15.70;14.77;;;8.70;99.90;;;;;;5008923;28;20871;-69
2022/02/19 11:27:46;;;;;;;16.53;15.30;;;8.80;99.90;;;;;;5007712;28;20744;-69
2022/02/19 11:30:13;;;;;;;17.13;15.90;;;8.80;99.90;;;;;;5006687;28;20905;-72
2022/02/19 11:32:42;;;;;;;15.83;14.90;;;9.10;99.90;;;;;;5007269;28;20503;-71
2022/02/19 11:35:10;;;;;;;16.67;15.40;;;9.10;99.90;;;;;;5008569;28;20468;-70
2022/02/19 11:37:42;;;;;;;15.97;14.97;;;8.70;99.90;;;;;;5008230;28;20551;-70
2022/02/19 11:40:12;;;;;;;15.40;14.50;;;8.40;99.90;;;;;;5007842;28;20531;-70
2022/02/19 11:42:45;;;;;;;17.07;16.10;;;8.30;99.90;;;;;;5023418;28;20491;-70
2022/02/19 11:45:24;;;;;;;17.27;15.90;;;8.50;99.90;;;;;;5035255;28;20966;-69
2022/02/19 11:47:52;;;;;;;16.47;15.50;;;8.20;99.90;;;;;;5015435;28;20468;-70
2022/02/19 11:50:21;;;;;;;16.30;15.20;;;8.00;99.90;;;;;;5009002;28;20468;-70
2022/02/19 11:53:26;;;;;;;16.00;15.10;;;8.10;99.90;;;;;;5007351;28;21222;-70
2022/02/19 11:55:54;;;;;;;17.33;15.63;;;8.70;99.90;;;;;;5006887;28;20528;-72
2022/02/19 11:58:24;;;;;;;16.73;15.43;;;8.70;99.90;;;;;;5008421;28;21026;-70
2022/02/19 12:00:54;;;;;;;16.97;15.73;;;8.80;99.90;;;;;;5008635;28;20561;-71
2022/02/19 12:03:23;;;;;;;16.53;15.43;;;8.40;99.90;;;;;;5008504;28;20504;-70
2022/02/19 12:06:13;;;;;;;17.03;15.83;;;7.90;99.90;;;;;;5008449;28;21009;-70
2022/02/19 12:09:21;;;;;;;17.27;15.73;;;7.90;99.90;;;;;;5008098;28;20476;-70
2022/02/19 12:12:12;;;;;;;16.27;15.47;;;8.40;99.90;;;;;;5007849;28;20719;-71
2022/02/19 12:14:53;;;;;;;16.27;15.27;;;9.30;99.90;;;;;;5006325;28;20464;-70
2022/02/19 12:17:22;;;;;;;16.53;15.47;;;8.90;99.90;;;;;;5008166;28;20499;-70
2022/02/19 12:20:00;;;;;;;16.53;15.43;;;8.70;99.90;;;;;;5007753;28;20477;-70
2022/02/19 12:22:32;;;;;;;17.30;16.10;;;9.00;99.90;;;;;;5008271;28;20496;-69
2022/02/19 12:25:01;;;;;;;16.23;15.30;;;9.50;99.90;;;;;;5008153;28;20945;-71
2022/02/19 12:27:28;;;;;;;16.40;15.17;;;9.50;99.90;;;;;;5008132;28;20469;-70
2022/02/19 12:30:30;;;;;;;16.70;15.70;;;9.30;99.90;;;;;;5008309;28;20710;-70
2022/02/19 12:33:01;;;;;;;16.30;15.07;;;8.70;99.90;;;;;;5002141;28;20472;-69
2022/02/19 12:35:35;;;;;;;17.90;16.20;;;8.60;99.90;;;;;;5008059;28;20630;-69
2022/02/19 12:38:02;;;;;;;17.47;16.17;;;8.50;99.90;;;;;;5008466;28;20531;-70
2022/02/19 12:40:30;;;;;;;17.80;16.23;;;8.60;99.90;;;;;;5029444;28;20982;-69
2022/02/19 12:42:58;;;;;;;16.73;15.43;;;8.60;99.90;;;;;;5036928;28;20503;-71
2022/02/19 12:45:25;;;;;;;16.00;14.90;;;9.00;99.90;;;;;;5007685;28;21149;-70
2022/02/19 12:47:53;;;;;;;17.17;15.87;;;9.70;99.90;;;;;;5008181;28;20512;-70
2022/02/19 12:50:22;;;;;;;16.17;15.27;;;10.50;99.90;;;;;;5008340;28;20462;-70